Katharina — V2DQ5 — position and weather

sailwx.info

Track history (hours):
 
Tides and Currents Weather Stations Pressure Air Temp Water Temp Dewpoint Dewpoint Depression Visibility Wind Speed Wind Dir Waves Ship Positions

Katharina

Last reported at 2016-Jul-22 08:34 UTC. Time now 2016-Jul-28 12:28 UTC.
Position N 59°48' E 005°33'.

Length 146 m; draft 5.4 m.

Type: Ship (hazmat cat B). MMSI: 305305000.

Date/timePositionNaut miles runAvg speedWind from/ knotsBaromVisibWave heightAir tempDewpointWater temp
2016-Jul-22 08:34N 59°48' E 005°33'40 1.3
2016-Jul-21 01:33N 59°09' E 005°21'1010.3
2016-Jul-21 00:33N 59°01' E 005°09'1511.4
2016-Jul-20 23:12N 58°46' E 005°04'26612.3
2016-Jul-20 01:31N 54°20' E 005°11'1511.8
2016-Jul-20 00:15N 54°05' E 005°06'811.7
2016-Jul-19 23:33N 53°57' E 005°01'5311.9
2016-Jul-19 19:03N 53°08' E 004°27'712.8
2016-Jul-19 18:32N 53°02' E 004°22'6262.5
2016-Jul-19 17:32N 52°01' E 003°57'0 0.0
2016-Jul-19 16:32N 52°01' E 003°57'0 0.0
2016-Jul-19 15:32N 52°01' E 003°57'0 0.0
2016-Jul-19 14:32N 52°01' E 003°57'0 0.0
2016-Jul-19 13:32N 52°01' E 003°57'1110.9
2016-Jul-19 12:34N 51°56' E 004°12'8 8.0
2016-Jul-19 11:32N 51°53' E 004°25'0 0.0
2016-Jul-19 10:32N 51°53' E 004°25'0 0.0
2016-Jul-19 09:32N 51°53' E 004°25'0 0.0
2016-Jul-19 08:32N 51°53' E 004°25'0 0.0
2016-Jul-19 07:32N 51°53' E 004°25'0 0.0
2016-Jul-19 06:32N 51°53' E 004°25'0 0.0
2016-Jul-19 04:32N 51°53' E 004°25'0 0.0
2016-Jul-19 03:32N 51°53' E 004°25'0 0.0
2016-Jul-19 02:32N 51°53' E 004°25'0 0.0
2016-Jul-19 01:32N 51°53' E 004°25'0 0.0
2016-Jul-19 00:32N 51°53' E 004°25'0 0.0
2016-Jul-18 23:32N 51°53' E 004°25'0 0.0
2016-Jul-18 22:32N 51°53' E 004°25'0 0.0
2016-Jul-18 21:32N 51°53' E 004°25'0 0.0
2016-Jul-18 20:32N 51°53' E 004°25'0 0.0
2016-Jul-18 19:32N 51°53' E 004°25'0 0.0
2016-Jul-18 18:32N 51°53' E 004°25'0 0.0
2016-Jul-18 17:32N 51°53' E 004°25'0 0.0
2016-Jul-18 16:32N 51°53' E 004°25'0 0.0
2016-Jul-18 15:32N 51°53' E 004°25'0 0.0
2016-Jul-18 14:32N 51°53' E 004°25'0 0.0
2016-Jul-18 13:32N 51°53' E 004°25'0 0.0
2016-Jul-18 12:32N 51°53' E 004°25'0 0.0
2016-Jul-18 11:32N 51°53' E 004°25'0 0.0
2016-Jul-18 10:32N 51°53' E 004°25'0 0.0
2016-Jul-18 09:32N 51°53' E 004°25'0 0.0
2016-Jul-18 08:32N 51°53' E 004°25'0 0.0
2016-Jul-18 07:32N 51°53' E 004°25'0 0.0
2016-Jul-18 06:32N 51°53' E 004°25'0 0.0
2016-Jul-18 05:33N 51°53' E 004°25'0 0.0
2016-Jul-18 04:32N 51°53' E 004°25'0 0.0
2016-Jul-18 03:32N 51°53' E 004°25'0 0.0
2016-Jul-18 02:32N 51°53' E 004°25'0 0.0
2016-Jul-18 01:32N 51°53' E 004°25'0 0.0
2016-Jul-18 00:32N 51°53' E 004°25'0 0.0
2016-Jul-17 23:32N 51°53' E 004°25'0 0.0
2016-Jul-17 22:32N 51°53' E 004°25'0 0.0
2016-Jul-17 21:32N 51°53' E 004°25'0 0.0
2016-Jul-17 20:32N 51°53' E 004°25'0 0.0
2016-Jul-17 19:32N 51°53' E 004°25'0 0.0
2016-Jul-17 18:32N 51°53' E 004°25'0 0.0
2016-Jul-17 17:32N 51°53' E 004°25'0 0.0
2016-Jul-17 16:32N 51°53' E 004°25'0 0.0
2016-Jul-17 15:32N 51°53' E 004°25'0 0.0
2016-Jul-17 14:33N 51°53' E 004°25'0 0.0
2016-Jul-17 13:32N 51°53' E 004°25'0 0.0
2016-Jul-17 12:32N 51°53' E 004°25'0 0.0
2016-Jul-17 11:32N 51°53' E 004°25'0 0.0
2016-Jul-17 10:32N 51°53' E 004°25'0 0.0
2016-Jul-17 09:32N 51°53' E 004°25'0 0.0
2016-Jul-17 08:32N 51°53' E 004°25'0 0.0
2016-Jul-17 07:30N 51°53' E 004°25'0 0.0
2016-Jul-17 06:32N 51°53' E 004°25'0 0.0
2016-Jul-17 04:32N 51°53' E 004°25'0 0.0
2016-Jul-17 03:32N 51°53' E 004°25'0 0.0
2016-Jul-17 02:32N 51°53' E 004°25'0 0.0
2016-Jul-17 01:32N 51°53' E 004°25'5 4.6
2016-Jul-17 00:32N 51°54' E 004°17'7 7.4
2016-Jul-16 23:33N 51°58' E 004°08'18612.1
2016-Jul-16 08:15N 53°58' E 000°12'811.2
2016-Jul-16 07:34N 54°05' E 000°05'1111.1
2016-Jul-16 06:33N 54°14' W 000°04'49811.3
2016-Jul-14 10:21N 62°01' W 005°31'1012.6
2016-Jul-14 09:33N 62°09' W 005°43'1312.6
2016-Jul-14 08:33N 62°20' W 005°59'1312.7
2016-Jul-14 07:33N 62°30' W 006°15'1312.6
2016-Jul-14 06:33N 62°38' W 006°36'1212.4
2016-Jul-14 05:33N 62°45' W 006°58'1212.3
2016-Jul-14 04:33N 62°53' W 007°19'  
Track history (hours):
 
Tides and Currents Weather Stations Pressure Air Temp Water Temp Dewpoint Dewpoint Depression Visibility Wind Speed Wind Dir Waves Ship Positions

Katharina

Last reported at 2016-Jul-22 08:34 UTC. Time now 2016-Jul-28 12:28 UTC.
Position N 59°48' E 005°33'.

Length 146 m; draft 5.4 m.

Type: Ship (hazmat cat B). MMSI: 305305000.

Date/timePositionNaut miles runAvg speedWind from/ knotsBaromVisibWave heightAir tempDewpointWater temp
2016-Jul-22 08:34N 59°48' E 005°33'40 1.3
2016-Jul-21 01:33N 59°09' E 005°21'1010.3
2016-Jul-21 00:33N 59°01' E 005°09'1511.4
2016-Jul-20 23:12N 58°46' E 005°04'26612.3
2016-Jul-20 01:31N 54°20' E 005°11'1511.8
2016-Jul-20 00:15N 54°05' E 005°06'811.7
2016-Jul-19 23:33N 53°57' E 005°01'5311.9
2016-Jul-19 19:03N 53°08' E 004°27'712.8
2016-Jul-19 18:32N 53°02' E 004°22'6262.5
2016-Jul-19 17:32N 52°01' E 003°57'0 0.0
2016-Jul-19 16:32N 52°01' E 003°57'0 0.0
2016-Jul-19 15:32N 52°01' E 003°57'0 0.0
2016-Jul-19 14:32N 52°01' E 003°57'0 0.0
2016-Jul-19 13:32N 52°01' E 003°57'1110.9
2016-Jul-19 12:34N 51°56' E 004°12'8 8.0
2016-Jul-19 11:32N 51°53' E 004°25'0 0.0
2016-Jul-19 10:32N 51°53' E 004°25'0 0.0
2016-Jul-19 09:32N 51°53' E 004°25'0 0.0
2016-Jul-19 08:32N 51°53' E 004°25'0 0.0
2016-Jul-19 07:32N 51°53' E 004°25'0 0.0
2016-Jul-19 06:32N 51°53' E 004°25'0 0.0
2016-Jul-19 04:32N 51°53' E 004°25'0 0.0
2016-Jul-19 03:32N 51°53' E 004°25'0 0.0
2016-Jul-19 02:32N 51°53' E 004°25'0 0.0
2016-Jul-19 01:32N 51°53' E 004°25'0 0.0
2016-Jul-19 00:32N 51°53' E 004°25'0 0.0
2016-Jul-18 23:32N 51°53' E 004°25'0 0.0
2016-Jul-18 22:32N 51°53' E 004°25'0 0.0
2016-Jul-18 21:32N 51°53' E 004°25'0 0.0
2016-Jul-18 20:32N 51°53' E 004°25'0 0.0
2016-Jul-18 19:32N 51°53' E 004°25'0 0.0
2016-Jul-18 18:32N 51°53' E 004°25'0 0.0
2016-Jul-18 17:32N 51°53' E 004°25'0 0.0
2016-Jul-18 16:32N 51°53' E 004°25'0 0.0
2016-Jul-18 15:32N 51°53' E 004°25'0 0.0
2016-Jul-18 14:32N 51°53' E 004°25'0 0.0
2016-Jul-18 13:32N 51°53' E 004°25'0 0.0
2016-Jul-18 12:32N 51°53' E 004°25'0 0.0
2016-Jul-18 11:32N 51°53' E 004°25'0 0.0
2016-Jul-18 10:32N 51°53' E 004°25'0 0.0
2016-Jul-18 09:32N 51°53' E 004°25'0 0.0
2016-Jul-18 08:32N 51°53' E 004°25'0 0.0
2016-Jul-18 07:32N 51°53' E 004°25'0 0.0
2016-Jul-18 06:32N 51°53' E 004°25'0 0.0
2016-Jul-18 05:33N 51°53' E 004°25'0 0.0
2016-Jul-18 04:32N 51°53' E 004°25'0 0.0
2016-Jul-18 03:32N 51°53' E 004°25'0 0.0
2016-Jul-18 02:32N 51°53' E 004°25'0 0.0
2016-Jul-18 01:32N 51°53' E 004°25'0 0.0
2016-Jul-18 00:32N 51°53' E 004°25'0 0.0
2016-Jul-17 23:32N 51°53' E 004°25'0 0.0
2016-Jul-17 22:32N 51°53' E 004°25'0 0.0
2016-Jul-17 21:32N 51°53' E 004°25'0 0.0
2016-Jul-17 20:32N 51°53' E 004°25'0 0.0
2016-Jul-17 19:32N 51°53' E 004°25'0 0.0
2016-Jul-17 18:32N 51°53' E 004°25'0 0.0
2016-Jul-17 17:32N 51°53' E 004°25'0 0.0
2016-Jul-17 16:32N 51°53' E 004°25'0 0.0
2016-Jul-17 15:32N 51°53' E 004°25'0 0.0
2016-Jul-17 14:33N 51°53' E 004°25'0 0.0
2016-Jul-17 13:32N 51°53' E 004°25'0 0.0
2016-Jul-17 12:32N 51°53' E 004°25'0 0.0
2016-Jul-17 11:32N 51°53' E 004°25'0 0.0
2016-Jul-17 10:32N 51°53' E 004°25'0 0.0
2016-Jul-17 09:32N 51°53' E 004°25'0 0.0
2016-Jul-17 08:32N 51°53' E 004°25'0 0.0
2016-Jul-17 07:30N 51°53' E 004°25'0 0.0
2016-Jul-17 06:32N 51°53' E 004°25'0 0.0
2016-Jul-17 04:32N 51°53' E 004°25'0 0.0
2016-Jul-17 03:32N 51°53' E 004°25'0 0.0
2016-Jul-17 02:32N 51°53' E 004°25'0 0.0
2016-Jul-17 01:32N 51°53' E 004°25'5 4.6
2016-Jul-17 00:32N 51°54' E 004°17'7 7.4
2016-Jul-16 23:33N 51°58' E 004°08'18612.1
2016-Jul-16 08:15N 53°58' E 000°12'811.2
2016-Jul-16 07:34N 54°05' E 000°05'1111.1
2016-Jul-16 06:33N 54°14' W 000°04'49811.3
2016-Jul-14 10:21N 62°01' W 005°31'1012.6
2016-Jul-14 09:33N 62°09' W 005°43'1312.6
2016-Jul-14 08:33N 62°20' W 005°59'1312.7
2016-Jul-14 07:33N 62°30' W 006°15'1312.6
2016-Jul-14 06:33N 62°38' W 006°36'1212.4
2016-Jul-14 05:33N 62°45' W 006°58'1212.3
2016-Jul-14 04:33N 62°53' W 007°19'  

Dump ship's entire track history